Historyczne dane pomiarowe

Dodano dane terminowe – wersja testowa.

Dane z okresu 1951-2019

Wersja bazy: 1.34 [2019-03-16, lista zmian], aktualizacja planowana na 2019-04-15

Dane meteo z obszaru Polski uzyskane na podstawie danych udostępnionych przez Instytut Meteorologii i Gospodarki Wodnej – Państwowy Instytut Badawczy.

 

Wybierz Datę:    

       

TemperaturaWilgotnośćWiatrCiśnienieOpadyŚniegCzas trwania zjawisk
 Stacja t tx tn tng RH VA  wxwx mslp ppp RRR   cm mm wxwxwxwxwxwxwx
2020-02-29 -9.5 -7.2-12.1- 88.6 2.7 7.0 14.0 19.7 13.8- 788.6 0.0 0.0 0.0187 2.9 4.4--- 15.1---
2020-02-28-10.4 -9.5-11.6- 87.6 2.4 8.0 8.3 7.2 0.0- 784.6 17.8 16.4 1.4175 3.1 0.0- 22.6- 24.0---
2020-02-27-10.6 -8.3-11.7- 86.6 2.4 6.8 6.0 5.2 0.2- 781.1 2.5 0.0 2.5173 3.1 2.0- 7.6- 8.8---
2020-02-26 -6.2 -2.1 -8.4- 84.9 3.4 7.1 6.9 3.7 0.0- 778.6 0.7 0.3 0.4172 3.1 0.1- 4.9- 9.2---
2020-02-25 -2.3 -1.1 -8.1- 93.4 4.8 7.8 11.4 16.3 3.5- 786.0 0.6 0.2 0.4173 3.1 0.1- 5.3- 12.7---
2020-02-24 -7.7 0.0-10.2- 92.1 3.2 6.5 9.1 9.1 0.2- 791.7 2.2 2.0 0.2172 3.1 2.7- 9.0- 14.3---
2020-02-23 -1.4 2.4 -3.4- 98.1 5.5 7.0 14.6 22.0 9.7- 793.9 5.6 1.7 3.9170 3.0 0.2- 12.6- 17.0-- 0.2
2020-02-22 -4.5 1.6-11.3- 65.9 2.9 4.9 10.1 14.8 3.3- 801.6 0.1 0.0 0.1174 2.9 6.3- 1.6- 1.4---
2020-02-21 -8.6 -6.1-10.4- 91.5 2.9 6.9 10.4 15.3 1.8- 795.7 2.6 1.5 1.1172 2.8 0.0- 16.5- 19.3---
2020-02-20 -9.2 -6.7 -9.9- 93.0 2.9 5.9 5.8 4.3 0.0- 796.1 0.8 0.8 0.0172 2.8 0.0- 8.0- 13.3---
2020-02-19 -7.8 -6.6 -9.0- 87.3 3.0 6.8 9.1 6.5 0.0- 795.1 3.0 0.0 3.0173 2.7 0.8- 8.2- 8.3---
2020-02-18 -5.1 2.7 -6.7- 92.0 3.9 7.0 8.1 6.3 0.0- 799.1 0.1 0.1 0.0175 2.6 1.6- 3.9- 5.8---
2020-02-17 5.0 7.7 2.6- 49.5 4.1 6.6 8.6 9.8 0.5- 800.6 0.9 0.0 0.9182 2.4 5.6-------
2020-02-16 2.8 4.3 0.3- 16.3 1.2 5.6 13.1 22.3 2.5- 803.3 0.0 0.0 0.0183 2.4 6.2 0.3------
2020-02-15 -4.4 0.3 -8.4- 70.0 2.8 5.4 4.5 1.0 0.0- 802.0 0.0 0.0 0.0190 2.5 8.8- 5.3- 7.3---
2020-02-14 -6.4 -5.5 -9.0- 95.5 3.6 8.0 8.3 4.8 2.8- 792.0 3.4 0.2 3.2190 2.6 0.0- 10.5- 24.0---
2020-02-13-10.3 -8.5-12.0- 87.8 2.5 5.9 10.6 14.5 6.8- 792.2 1.1 0.0 1.1193 2.5 6.9- 6.2- 9.5---
2020-02-12-11.0-10.0-11.6- 91.6 2.4 7.8 11.8 21.0 0.0- 787.5 2.8 1.7 1.1189 2.5 0.1- 21.3- 24.0---
2020-02-11 -9.0 -6.2-10.4- 92.0 2.9 7.9 12.8 23.2 3.3- 780.7 4.9 3.3 1.6188 2.4 0.0- 17.5- 17.6---
2020-02-10 -5.3 -0.9 -9.3- 92.5 3.9 7.4 16.0 24.0 13.2- 784.5 2.9 0.6 2.3186 2.4 0.4- 8.9- 23.3---
2020-02-09 -2.5 0.3 -3.5- 49.3 2.5 3.9 12.1 19.2 6.3- 800.7 0.0 0.0 0.0191 2.4 9.1--- 3.4---
2020-02-08 -3.3 0.1-12.9- 45.0 2.4 0.5 4.6 0.0 0.0- 803.5 0.0 0.0 0.0193 2.5 8.9-------
2020-02-07 -9.4 -6.8-13.5- 86.6 2.7 5.1 9.6 15.2 0.0- 799.0 4.2 4.2 0.0192 2.1 1.2- 8.6- 14.6---
2020-02-06-11.8 -8.9-15.1- 90.5 2.3 7.0 9.4 7.0 0.0- 797.4 5.5 0.4 5.1185 2.1 0.2- 9.0- 19.8---
2020-02-05-11.2 -9.0-14.1- 91.5 2.4 8.0 14.9 23.7 8.2- 789.3 36.0 31.2 4.8151 2.4 0.0- 24.0- 24.0---
2020-02-04 -6.2 -3.2 -9.2- 96.4 3.8 8.0 12.3 20.0 1.0- 780.6 44.0 21.8 22.2105 2.8 0.0- 21.1- 24.0---
2020-02-03 -3.9 -0.2 -5.3- 98.6 4.6 8.0 11.9 17.7 0.5- 788.2 3.1 1.4 1.7 98 2.9 0.0- 15.4- 24.0---
2020-02-02 -3.1 0.1 -5.5- 98.0 4.8 7.6 12.4 21.2 5.3- 789.1 2.1 0.5 1.6 95 2.9 2.6- 12.6- 17.8---
2020-02-01 1.1 4.7 -4.7- 89.3 5.8 7.4 12.9 19.8 1.8- 792.0 1.5 0.0 1.5 95 2.8 6.3- 1.8- 8.7---
2020-01-31 -2.0 -0.3 -6.9- 90.6 4.8 7.8 11.5 17.3 2.5- 788.5 2.2 1.9 0.0 95 2.6 0.0- 5.5- 18.4---
2020-01-30 -8.3 -6.2-10.6- 92.0 3.1 7.3 7.6 5.8 0.0- 789.3 0.2 0.0 0.2 96 2.5 3.5- 2.1- 9.4---
2020-01-29-10.0 -4.5-11.9- 84.1 2.4 7.0 9.0 10.5 0.0- 782.6 0.3 0.3 0.0 97 2.6 4.1- 8.7- 15.8---
2020-01-28 -5.2 -4.2 -6.2- 91.3 3.8 6.1 10.3 17.0 1.5- 784.6 5.5 1.4 4.1 95 2.7 0.7- 5.7- 9.6---
2020-01-27 -3.4 -1.2 -4.8- 63.0 3.0 3.4 4.4 4.2 0.0- 794.4 0.0 0.0 0.0 96 2.7 4.2-------
2020-01-26 -0.3 3.5 -2.2- 39.8 2.3 3.6 4.3 0.0 0.0- 797.9 0.0 0.0 0.0 98 2.7 6.4-------
2020-01-25 0.1 2.1 -2.2- 23.1 1.4 0.8 3.9 0.0 0.0- 798.8 0.0 0.0 0.0100 2.5 8.2-------
2020-01-24 1.2 3.4 -2.7- 10.1 0.7 0.4 8.5 9.7 0.5- 801.3 0.0 0.0 0.0102 2.5 8.2-------
2020-01-23 -6.9 -1.9-12.5- 51.0 1.5 3.8 6.3 2.0 0.0- 805.0 0.0 0.0 0.0102 2.6 8.1- 3.1- 5.2---
2020-01-22 -4.1 0.9 -9.0- 50.5 2.0 4.4 9.6 12.5 0.0- 804.3 2.0 0.1 1.9100 2.6 5.4- 5.8- 11.4---
2020-01-21 -1.8 0.0 -4.0- 18.3 1.0 2.3 5.3 0.0 0.0- 813.6 0.0 0.0 0.0101 2.4 8.1-------
2020-01-20 -6.2 -1.3 -9.2- 64.6 2.2 4.1 5.4 0.0 0.0- 812.9 0.0 0.0 0.0102 2.6 5.6- 4.3- 10.3---
2020-01-19 -8.2 -7.3 -8.6- 94.0 3.1 8.0 6.0 0.0 0.0- 801.9 1.7 0.1 1.6100 2.6 0.0- 14.5- 24.0---
2020-01-18 -4.8 -0.2 -7.8- 58.3 2.4 6.3 6.3 5.2 0.8- 799.6 0.1 0.0 0.1101 2.6 7.0- 0.2- 6.4---
2020-01-17 0.6 3.6 -4.6- 22.6 1.4 4.0 8.9 14.3 1.7- 803.7 0.0 0.0 0.0102 2.6 5.8-------
2020-01-16 -0.4 5.5 -4.2- 59.3 3.1 6.1 6.3 0.7 0.0- 806.3 0.0 0.0 0.0104 2.6 0.8--- 10.3---
2020-01-15 2.2 4.3 -0.4- 19.6 1.4 5.9 9.9 13.2 0.0- 803.6 0.0 0.0 0.0107 2.4 7.9-------
2020-01-14 -0.5 2.7 -4.3- 25.8 1.5 3.8 8.3 7.2 0.0- 799.1 0.0 0.0 0.0110 2.6 7.0-------
2020-01-13 -2.6 3.3 -5.0- 66.8 3.2 7.0 8.3 4.0 0.0- 800.5 0.0 0.0 0.0111 2.6 4.1- 0.3- 5.2---
2020-01-12 0.6 2.7 -7.6- 6.9 0.4 3.5 7.0 4.5 0.0- 803.9 0.0 0.0 0.0111 2.6 7.9-------
2020-01-11 -5.9 0.0 -7.4- 96.1 3.8 6.9 6.9 2.0 0.0- 802.5 1.0 1.0 0.0110 2.7 0.0- 7.6- 16.2---
2020-01-10 0.7 4.4 -1.0- 79.0 5.0 6.8 6.4 2.8 0.0- 799.4 0.1 0.0 0.1124 2.3 4.0--- 3.7---
2020-01-09 1.6 2.7 -1.2- 98.9 6.8 7.8 6.6 4.5 0.0- 802.4 0.5 0.5 0.0129 2.2 0.0 6.3-- 13.7---
2020-01-08 -1.0 1.7 -6.2- 44.1 2.5 2.6 5.1 0.0 0.0- 804.2 4.3 0.0 4.3135 2.2 7.8 3.7-- 3.7---
2020-01-07 -3.9 -2.0 -7.9- 37.5 1.7 1.5 5.1 0.0 0.0- 801.0 0.0 0.0 0.0135 2.2 7.6-------
2020-01-06-10.4 -7.0-14.4- 70.6 2.0 4.9 4.4 0.0 0.0- 802.5 0.0 0.0 0.0138 2.2 2.2--- 0.3---
2020-01-05-12.7 -8.1-13.5- 89.8 2.1 8.0 11.8 18.8 0.0- 797.3 9.5 8.7 0.8130 2.2 0.0- 21.7- 24.0---
2020-01-04 -6.6 2.1-10.0- 94.1 3.6 7.9 10.6 13.7 0.7- 794.7 11.1 3.6 7.5116 2.3 0.0- 16.5- 21.8---
2020-01-03 1.7 5.4 -0.3- 27.5 1.8 3.1 10.5 11.5 0.3- 802.4 0.0 0.0 0.0121 2.2 7.3-------
2020-01-02 -0.2 4.2 -6.0- 13.3 0.8 4.0 7.4 6.8 0.0- 807.5 0.0 0.0 0.0123 2.2 4.7-------
2020-01-01 -8.2 -4.7-10.4- 75.3 2.4 4.5 7.9 3.0 0.0- 804.8 0.0 0.0 0.0126 2.2 6.4--- 7.3---
54.1 ms

 

Źródłem pochodzenia danych jest Instytut Meteorologii i Gospodarki Wodnej – Państwowy Instytut Badawczy. Dane Instytutu Meteorologii i Gospodarki Wodnej – Państwowego Instytutu Badawczego zostały przetworzone.

Dane źródłowe można odnaleźć na stronie https://dane.imgw.pl